CheckWX is a tool to help pilots better visualize weather data.  It is not intended as a substitute for an official pre-flight weather briefing.

05:32:46 UTC

N38 METAR
Wellsboro Johnston Airport
Wellsboro, Pennsylvania, USA
Current

18 mins ago

KN38 230515Z AUTO 00000KT 10SM OVC048 14/13 A3005 RMK AO2
Observed
Aug-23 @ 05:15 UTC
Visibility
10 SM
Flight Rules
VFR
Cloud Levels
  • Overcast at 4,800' AGL
Temperature
14°C / 57°F
Dewpoint
13°C / 55°F
Humidity
94%
Altimeter
30.05" Hg
Pressure
1017.62 hPa
Previous

38 mins ago

KN38 230455Z AUTO 28005KT 10SM BKN049 13/13 A3005 RMK AO2
Observed
Aug-23 @ 04:55 UTC
Wind
  • 280° at 5 KTS
Visibility
10 SM
Flight Rules
VFR
Cloud Levels
  • Broken at 4,900' AGL
Temperature
13°C / 55°F
Dewpoint
13°C / 55°F
Humidity
100%
Altimeter
30.05" Hg
Pressure
1017.62 hPa
Previous

58 mins ago

KN38 230435Z AUTO 29004KT 10SM FEW048 14/13 A3005 RMK AO2
Observed
Aug-23 @ 04:35 UTC
Wind
  • 290° at 4 KTS
Visibility
10 SM
Flight Rules
VFR
Cloud Levels
  • Few at 4,800' AGL
Temperature
14°C / 57°F
Dewpoint
13°C / 55°F
Humidity
94%
Altimeter
30.05" Hg
Pressure
1017.62 hPa